sensor_id;sensor_type;location;lat;lon;timestamp;P1;durP1;ratioP1;P2;durP2;ratioP2
61397;SDS011;47267;48.130;-2.040;2022-08-16T00:01:34;3.83;;;3.53;;
61397;SDS011;47267;48.130;-2.040;2022-08-16T00:04:00;3.83;;;3.40;;
61397;SDS011;47267;48.130;-2.040;2022-08-16T00:06:25;4.45;;;3.53;;
61397;SDS011;47267;48.130;-2.040;2022-08-16T00:08:51;4.55;;;3.90;;
61397;SDS011;47267;48.130;-2.040;2022-08-16T00:11:17;3.58;;;3.28;;
61397;SDS011;47267;48.130;-2.040;2022-08-16T00:13:47;4.30;;;3.90;;
61397;SDS011;47267;48.130;-2.040;2022-08-16T00:16:24;3.90;;;3.60;;
61397;SDS011;47267;48.130;-2.040;2022-08-16T00:18:55;5.38;;;3.63;;
61397;SDS011;47267;48.130;-2.040;2022-08-16T00:21:21;4.40;;;4.00;;
61397;SDS011;47267;48.130;-2.040;2022-08-16T00:23:47;4.07;;;3.67;;
61397;SDS011;47267;48.130;-2.040;2022-08-16T00:26:13;4.10;;;3.65;;
61397;SDS011;47267;48.130;-2.040;2022-08-16T00:28:39;4.25;;;3.85;;
61397;SDS011;47267;48.130;-2.040;2022-08-16T00:31:05;3.95;;;3.65;;
61397;SDS011;47267;48.130;-2.040;2022-08-16T00:33:30;3.80;;;3.50;;
61397;SDS011;47267;48.130;-2.040;2022-08-16T00:35:56;4.07;;;3.72;;
61397;SDS011;47267;48.130;-2.040;2022-08-16T00:38:22;3.58;;;3.28;;
61397;SDS011;47267;48.130;-2.040;2022-08-16T00:40:49;3.83;;;3.40;;
61397;SDS011;47267;48.130;-2.040;2022-08-16T00:43:52;3.95;;;3.55;;
61397;SDS011;47267;48.130;-2.040;2022-08-16T00:48:54;4.72;;;3.60;;
61397;SDS011;47267;48.130;-2.040;2022-08-16T00:51:21;3.80;;;3.47;;
61397;SDS011;47267;48.130;-2.040;2022-08-16T00:53:49;3.80;;;3.47;;
61397;SDS011;47267;48.130;-2.040;2022-08-16T00:56:21;3.97;;;3.58;;
61397;SDS011;47267;48.130;-2.040;2022-08-16T00:58:50;3.70;;;3.40;;
61397;SDS011;47267;48.130;-2.040;2022-08-16T01:01:16;3.72;;;3.42;;
61397;SDS011;47267;48.130;-2.040;2022-08-16T01:03:45;3.95;;;3.60;;
61397;SDS011;47267;48.130;-2.040;2022-08-16T01:06:13;3.90;;;3.50;;
61397;SDS011;47267;48.130;-2.040;2022-08-16T01:08:42;5.28;;;3.72;;
61397;SDS011;47267;48.130;-2.040;2022-08-16T01:11:09;3.75;;;3.45;;
61397;SDS011;47267;48.130;-2.040;2022-08-16T01:13:36;4.47;;;3.58;;
61397;SDS011;47267;48.130;-2.040;2022-08-16T01:16:07;4.03;;;3.63;;
61397;SDS011;47267;48.130;-2.040;2022-08-16T01:21:20;3.95;;;3.55;;
61397;SDS011;47267;48.130;-2.040;2022-08-16T01:26:57;3.50;;;3.20;;
61397;SDS011;47267;48.130;-2.040;2022-08-16T01:29:31;4.25;;;3.55;;
61397;SDS011;47267;48.130;-2.040;2022-08-16T01:32:07;4.20;;;3.80;;
61397;SDS011;47267;48.130;-2.040;2022-08-16T01:34:32;3.90;;;3.58;;
61397;SDS011;47267;48.130;-2.040;2022-08-16T01:37:08;4.00;;;3.60;;
61397;SDS011;47267;48.130;-2.040;2022-08-16T01:39:36;3.50;;;3.20;;
61397;SDS011;47267;48.130;-2.040;2022-08-16T01:42:02;3.90;;;3.58;;
61397;SDS011;47267;48.130;-2.040;2022-08-16T01:44:31;4.60;;;3.78;;
61397;SDS011;47267;48.130;-2.040;2022-08-16T01:46:58;3.55;;;3.20;;
61397;SDS011;47267;48.130;-2.040;2022-08-16T01:49:25;4.38;;;3.75;;
61397;SDS011;47267;48.130;-2.040;2022-08-16T01:51:57;3.58;;;3.28;;
61397;SDS011;47267;48.130;-2.040;2022-08-16T01:54:26;3.90;;;3.53;;
61397;SDS011;47267;48.130;-2.040;2022-08-16T01:56:52;3.72;;;3.42;;
61397;SDS011;47267;48.130;-2.040;2022-08-16T01:59:19;4.15;;;3.75;;
61397;SDS011;47267;48.130;-2.040;2022-08-16T02:01:45;3.90;;;3.55;;
61397;SDS011;47267;48.130;-2.040;2022-08-16T02:04:14;4.03;;;3.65;;
61397;SDS011;47267;48.130;-2.040;2022-08-16T02:06:40;3.55;;;3.25;;
61397;SDS011;47267;48.130;-2.040;2022-08-16T02:09:07;3.60;;;3.20;;
61397;SDS011;47267;48.130;-2.040;2022-08-16T02:11:34;4.22;;;3.70;;
61397;SDS011;47267;48.130;-2.040;2022-08-16T02:14:01;3.97;;;3.58;;
61397;SDS011;47267;48.130;-2.040;2022-08-16T02:16:27;4.22;;;3.45;;
61397;SDS011;47267;48.130;-2.040;2022-08-16T02:18:52;4.32;;;3.92;;
61397;SDS011;47267;48.130;-2.040;2022-08-16T02:21:18;3.88;;;3.47;;
61397;SDS011;47267;48.130;-2.040;2022-08-16T02:23:45;3.78;;;3.47;;
61397;SDS011;47267;48.130;-2.040;2022-08-16T02:26:11;4.47;;;3.40;;
61397;SDS011;47267;48.130;-2.040;2022-08-16T02:28:39;3.92;;;3.42;;
61397;SDS011;47267;48.130;-2.040;2022-08-16T02:31:06;3.85;;;3.55;;
61397;SDS011;47267;48.130;-2.040;2022-08-16T02:33:35;4.25;;;3.53;;
61397;SDS011;47267;48.130;-2.040;2022-08-16T02:36:01;3.92;;;3.55;;
61397;SDS011;47267;48.130;-2.040;2022-08-16T02:38:28;3.83;;;3.42;;
61397;SDS011;47267;48.130;-2.040;2022-08-16T02:40:55;3.90;;;3.33;;
61397;SDS011;47267;48.130;-2.040;2022-08-16T02:43:25;4.30;;;3.45;;
61397;SDS011;47267;48.130;-2.040;2022-08-16T02:45:53;3.50;;;3.20;;
61397;SDS011;47267;48.130;-2.040;2022-08-16T02:48:20;3.85;;;3.55;;
61397;SDS011;47267;48.130;-2.040;2022-08-16T02:50:46;4.15;;;3.72;;
61397;SDS011;47267;48.130;-2.040;2022-08-16T02:53:12;4.03;;;3.63;;
61397;SDS011;47267;48.130;-2.040;2022-08-16T02:55:37;4.45;;;3.63;;
61397;SDS011;47267;48.130;-2.040;2022-08-16T02:58:04;3.50;;;3.20;;
61397;SDS011;47267;48.130;-2.040;2022-08-16T03:00:29;3.50;;;3.20;;
61397;SDS011;47267;48.130;-2.040;2022-08-16T03:02:56;3.72;;;3.42;;
61397;SDS011;47267;48.130;-2.040;2022-08-16T03:05:22;3.75;;;3.35;;
61397;SDS011;47267;48.130;-2.040;2022-08-16T03:07:49;4.35;;;3.38;;
61397;SDS011;47267;48.130;-2.040;2022-08-16T03:10:14;3.90;;;3.60;;
61397;SDS011;47267;48.130;-2.040;2022-08-16T03:12:40;3.75;;;3.40;;
61397;SDS011;47267;48.130;-2.040;2022-08-16T03:15:08;4.07;;;3.50;;
61397;SDS011;47267;48.130;-2.040;2022-08-16T03:17:36;3.50;;;3.20;;
61397;SDS011;47267;48.130;-2.040;2022-08-16T03:20:03;3.83;;;3.45;;
61397;SDS011;47267;48.130;-2.040;2022-08-16T03:22:29;3.35;;;3.13;;
61397;SDS011;47267;48.130;-2.040;2022-08-16T03:24:59;4.35;;;3.40;;
61397;SDS011;47267;48.130;-2.040;2022-08-16T03:27:26;3.33;;;3.03;;
61397;SDS011;47267;48.130;-2.040;2022-08-16T03:29:52;3.40;;;3.10;;
61397;SDS011;47267;48.130;-2.040;2022-08-16T03:32:18;4.22;;;3.50;;
61397;SDS011;47267;48.130;-2.040;2022-08-16T03:34:44;3.70;;;3.40;;
61397;SDS011;47267;48.130;-2.040;2022-08-16T03:37:11;4.03;;;3.50;;
61397;SDS011;47267;48.130;-2.040;2022-08-16T03:39:37;4.05;;;3.30;;
61397;SDS011;47267;48.130;-2.040;2022-08-16T03:42:04;4.45;;;4.00;;
61397;SDS011;47267;48.130;-2.040;2022-08-16T03:44:31;3.97;;;3.58;;
61397;SDS011;47267;48.130;-2.040;2022-08-16T03:46:57;4.35;;;3.88;;
61397;SDS011;47267;48.130;-2.040;2022-08-16T03:49:23;3.92;;;3.35;;
61397;SDS011;47267;48.130;-2.040;2022-08-16T03:51:49;4.03;;;3.63;;
61397;SDS011;47267;48.130;-2.040;2022-08-16T03:54:14;3.60;;;3.25;;
61397;SDS011;47267;48.130;-2.040;2022-08-16T03:56:40;3.67;;;3.38;;
61397;SDS011;47267;48.130;-2.040;2022-08-16T03:59:07;3.45;;;3.15;;
61397;SDS011;47267;48.130;-2.040;2022-08-16T04:01:32;5.22;;;3.53;;
61397;SDS011;47267;48.130;-2.040;2022-08-16T04:03:58;4.25;;;3.35;;
61397;SDS011;47267;48.130;-2.040;2022-08-16T04:06:25;3.58;;;3.28;;
61397;SDS011;47267;48.130;-2.040;2022-08-16T04:08:51;3.65;;;3.35;;
61397;SDS011;47267;48.130;-2.040;2022-08-16T04:11:17;3.65;;;3.33;;
61397;SDS011;47267;48.130;-2.040;2022-08-16T04:13:43;4.60;;;3.58;;
61397;SDS011;47267;48.130;-2.040;2022-08-16T04:16:08;3.58;;;3.28;;
61397;SDS011;47267;48.130;-2.040;2022-08-16T04:18:36;4.15;;;3.45;;
61397;SDS011;47267;48.130;-2.040;2022-08-16T04:21:03;4.93;;;3.40;;
61397;SDS011;47267;48.130;-2.040;2022-08-16T04:23:29;3.42;;;3.13;;
61397;SDS011;47267;48.130;-2.040;2022-08-16T04:25:55;3.55;;;3.25;;
61397;SDS011;47267;48.130;-2.040;2022-08-16T04:28:21;4.00;;;3.55;;
61397;SDS011;47267;48.130;-2.040;2022-08-16T04:30:47;3.13;;;2.88;;
61397;SDS011;47267;48.130;-2.040;2022-08-16T04:33:12;3.78;;;3.20;;
61397;SDS011;47267;48.130;-2.040;2022-08-16T04:35:38;4.13;;;3.65;;
61397;SDS011;47267;48.130;-2.040;2022-08-16T04:38:04;3.70;;;3.13;;
61397;SDS011;47267;48.130;-2.040;2022-08-16T04:40:30;3.65;;;3.22;;
61397;SDS011;47267;48.130;-2.040;2022-08-16T04:42:56;3.60;;;3.05;;
61397;SDS011;47267;48.130;-2.040;2022-08-16T04:45:24;4.50;;;3.20;;
61397;SDS011;47267;48.130;-2.040;2022-08-16T04:47:50;4.93;;;3.38;;
61397;SDS011;47267;48.130;-2.040;2022-08-16T04:50:20;3.22;;;2.90;;
61397;SDS011;47267;48.130;-2.040;2022-08-16T04:52:49;4.25;;;3.08;;
61397;SDS011;47267;48.130;-2.040;2022-08-16T04:55:20;3.83;;;3.42;;
61397;SDS011;47267;48.130;-2.040;2022-08-16T04:57:48;3.78;;;3.30;;
61397;SDS011;47267;48.130;-2.040;2022-08-16T05:00:17;3.80;;;3.30;;
61397;SDS011;47267;48.130;-2.040;2022-08-16T05:02:44;4.45;;;3.47;;
61397;SDS011;47267;48.130;-2.040;2022-08-16T05:05:12;3.53;;;3.22;;
61397;SDS011;47267;48.130;-2.040;2022-08-16T05:07:38;4.05;;;3.40;;
61397;SDS011;47267;48.130;-2.040;2022-08-16T05:10:05;4.88;;;3.30;;
61397;SDS011;47267;48.130;-2.040;2022-08-16T05:12:32;3.50;;;3.20;;
61397;SDS011;47267;48.130;-2.040;2022-08-16T05:14:59;3.72;;;3.30;;
61397;SDS011;47267;48.130;-2.040;2022-08-16T05:17:25;3.97;;;3.05;;
61397;SDS011;47267;48.130;-2.040;2022-08-16T05:19:51;4.47;;;3.55;;
61397;SDS011;47267;48.130;-2.040;2022-08-16T05:22:18;4.10;;;3.28;;
61397;SDS011;47267;48.130;-2.040;2022-08-16T05:24:43;4.15;;;3.40;;
61397;SDS011;47267;48.130;-2.040;2022-08-16T05:27:09;3.63;;;3.30;;
61397;SDS011;47267;48.130;-2.040;2022-08-16T05:29:35;3.40;;;3.03;;
61397;SDS011;47267;48.130;-2.040;2022-08-16T05:32:01;3.55;;;3.22;;
61397;SDS011;47267;48.130;-2.040;2022-08-16T05:34:27;3.83;;;3.40;;
61397;SDS011;47267;48.130;-2.040;2022-08-16T05:36:53;3.50;;;3.15;;
61397;SDS011;47267;48.130;-2.040;2022-08-16T05:39:22;3.47;;;3.17;;
61397;SDS011;47267;48.130;-2.040;2022-08-16T05:41:49;4.45;;;3.90;;
61397;SDS011;47267;48.130;-2.040;2022-08-16T05:44:16;3.70;;;3.30;;
61397;SDS011;47267;48.130;-2.040;2022-08-16T05:46:43;3.60;;;3.20;;
61397;SDS011;47267;48.130;-2.040;2022-08-16T05:49:10;3.38;;;3.08;;
61397;SDS011;47267;48.130;-2.040;2022-08-16T05:51:43;4.25;;;3.65;;
61397;SDS011;47267;48.130;-2.040;2022-08-16T05:54:10;3.33;;;2.90;;
61397;SDS011;47267;48.130;-2.040;2022-08-16T05:56:39;3.60;;;3.30;;
61397;SDS011;47267;48.130;-2.040;2022-08-16T05:59:06;4.15;;;3.58;;
61397;SDS011;47267;48.130;-2.040;2022-08-16T06:01:35;3.55;;;3.25;;
61397;SDS011;47267;48.130;-2.040;2022-08-16T06:04:01;4.30;;;3.22;;
61397;SDS011;47267;48.130;-2.040;2022-08-16T06:06:26;3.80;;;2.97;;
61397;SDS011;47267;48.130;-2.040;2022-08-16T06:08:52;3.47;;;3.17;;
61397;SDS011;47267;48.130;-2.040;2022-08-16T06:11:18;3.95;;;3.42;;
61397;SDS011;47267;48.130;-2.040;2022-08-16T06:13:43;3.67;;;3.05;;
61397;SDS011;47267;48.130;-2.040;2022-08-16T06:16:11;3.47;;;3.00;;
61397;SDS011;47267;48.130;-2.040;2022-08-16T06:18:37;3.95;;;3.35;;
61397;SDS011;47267;48.130;-2.040;2022-08-16T06:21:03;4.45;;;3.40;;
61397;SDS011;47267;48.130;-2.040;2022-08-16T06:23:28;3.75;;;3.22;;
61397;SDS011;47267;48.130;-2.040;2022-08-16T06:25:54;4.05;;;3.45;;
61397;SDS011;47267;48.130;-2.040;2022-08-16T06:28:20;4.43;;;3.63;;
61397;SDS011;47267;48.130;-2.040;2022-08-16T06:30:46;4.43;;;3.60;;
61397;SDS011;47267;48.130;-2.040;2022-08-16T06:33:13;3.78;;;3.42;;
61397;SDS011;47267;48.130;-2.040;2022-08-16T06:35:40;4.50;;;3.75;;
61397;SDS011;47267;48.130;-2.040;2022-08-16T06:38:05;5.53;;;3.40;;
61397;SDS011;47267;48.130;-2.040;2022-08-16T06:40:31;4.53;;;3.38;;
61397;SDS011;47267;48.130;-2.040;2022-08-16T06:42:57;3.97;;;3.47;;
61397;SDS011;47267;48.130;-2.040;2022-08-16T06:45:24;3.78;;;3.47;;
61397;SDS011;47267;48.130;-2.040;2022-08-16T06:47:50;3.78;;;3.35;;
61397;SDS011;47267;48.130;-2.040;2022-08-16T06:50:16;4.78;;;3.40;;
61397;SDS011;47267;48.130;-2.040;2022-08-16T06:52:43;4.00;;;3.30;;
61397;SDS011;47267;48.130;-2.040;2022-08-16T06:55:11;3.85;;;3.50;;
61397;SDS011;47267;48.130;-2.040;2022-08-16T06:57:38;3.65;;;3.28;;
61397;SDS011;47267;48.130;-2.040;2022-08-16T07:00:05;5.35;;;3.20;;
61397;SDS011;47267;48.130;-2.040;2022-08-16T07:02:39;3.90;;;3.60;;
61397;SDS011;47267;48.130;-2.040;2022-08-16T07:05:06;3.70;;;3.30;;
61397;SDS011;47267;48.130;-2.040;2022-08-16T07:07:33;3.83;;;3.40;;
61397;SDS011;47267;48.130;-2.040;2022-08-16T07:10:00;4.05;;;3.47;;
61397;SDS011;47267;48.130;-2.040;2022-08-16T07:12:27;5.47;;;3.20;;
61397;SDS011;47267;48.130;-2.040;2022-08-16T07:14:53;3.42;;;3.13;;
61397;SDS011;47267;48.130;-2.040;2022-08-16T07:17:19;3.65;;;3.20;;
61397;SDS011;47267;48.130;-2.040;2022-08-16T07:19:47;3.50;;;3.20;;
61397;SDS011;47267;48.130;-2.040;2022-08-16T07:22:13;4.93;;;3.15;;
61397;SDS011;47267;48.130;-2.040;2022-08-16T07:24:40;4.78;;;3.47;;
61397;SDS011;47267;48.130;-2.040;2022-08-16T07:27:05;4.57;;;3.15;;
61397;SDS011;47267;48.130;-2.040;2022-08-16T07:29:31;3.97;;;3.38;;
61397;SDS011;47267;48.130;-2.040;2022-08-16T07:31:57;3.65;;;3.22;;
61397;SDS011;47267;48.130;-2.040;2022-08-16T07:34:24;4.70;;;3.33;;
61397;SDS011;47267;48.130;-2.040;2022-08-16T07:36:49;4.53;;;3.50;;
61397;SDS011;47267;48.130;-2.040;2022-08-16T07:39:15;5.07;;;3.42;;
61397;SDS011;47267;48.130;-2.040;2022-08-16T07:41:41;3.97;;;3.25;;
61397;SDS011;47267;48.130;-2.040;2022-08-16T07:44:08;4.78;;;3.17;;
61397;SDS011;47267;48.130;-2.040;2022-08-16T07:46:34;4.63;;;3.30;;
61397;SDS011;47267;48.130;-2.040;2022-08-16T07:49:00;5.03;;;3.42;;
61397;SDS011;47267;48.130;-2.040;2022-08-16T07:51:27;4.55;;;3.30;;
61397;SDS011;47267;48.130;-2.040;2022-08-16T07:53:55;5.88;;;3.72;;
61397;SDS011;47267;48.130;-2.040;2022-08-16T07:56:21;5.13;;;3.10;;
61397;SDS011;47267;48.130;-2.040;2022-08-16T07:58:47;4.35;;;3.15;;
61397;SDS011;47267;48.130;-2.040;2022-08-16T08:01:13;6.60;;;3.58;;
61397;SDS011;47267;48.130;-2.040;2022-08-16T08:03:39;3.55;;;3.25;;
61397;SDS011;47267;48.130;-2.040;2022-08-16T08:06:07;6.68;;;3.47;;
61397;SDS011;47267;48.130;-2.040;2022-08-16T08:08:33;5.13;;;3.45;;
61397;SDS011;47267;48.130;-2.040;2022-08-16T08:10:59;3.90;;;3.50;;
61397;SDS011;47267;48.130;-2.040;2022-08-16T08:13:25;4.75;;;3.55;;
61397;SDS011;47267;48.130;-2.040;2022-08-16T08:15:53;3.50;;;3.20;;
61397;SDS011;47267;48.130;-2.040;2022-08-16T08:18:21;4.20;;;3.20;;
61397;SDS011;47267;48.130;-2.040;2022-08-16T08:20:47;4.10;;;3.20;;
61397;SDS011;47267;48.130;-2.040;2022-08-16T08:23:13;4.63;;;2.80;;
61397;SDS011;47267;48.130;-2.040;2022-08-16T08:25:42;3.10;;;2.50;;
61397;SDS011;47267;48.130;-2.040;2022-08-16T08:28:09;3.67;;;2.40;;
61397;SDS011;47267;48.130;-2.040;2022-08-16T08:30:35;3.33;;;2.10;;
61397;SDS011;47267;48.130;-2.040;2022-08-16T08:33:02;3.10;;;1.98;;
61397;SDS011;47267;48.130;-2.040;2022-08-16T08:35:28;2.92;;;2.25;;
61397;SDS011;47267;48.130;-2.040;2022-08-16T08:37:53;3.75;;;2.30;;
61397;SDS011;47267;48.130;-2.040;2022-08-16T08:40:21;2.72;;;1.95;;
61397;SDS011;47267;48.130;-2.040;2022-08-16T08:42:47;4.43;;;2.05;;
61397;SDS011;47267;48.130;-2.040;2022-08-16T08:45:16;3.88;;;2.00;;
61397;SDS011;47267;48.130;-2.040;2022-08-16T08:47:43;3.15;;;2.00;;
61397;SDS011;47267;48.130;-2.040;2022-08-16T08:50:11;3.78;;;1.88;;
61397;SDS011;47267;48.130;-2.040;2022-08-16T08:52:41;3.58;;;2.00;;
61397;SDS011;47267;48.130;-2.040;2022-08-16T08:55:08;3.35;;;2.30;;
61397;SDS011;47267;48.130;-2.040;2022-08-16T08:57:37;3.83;;;1.80;;
61397;SDS011;47267;48.130;-2.040;2022-08-16T09:00:05;3.00;;;1.70;;
61397;SDS011;47267;48.130;-2.040;2022-08-16T09:02:32;3.88;;;1.67;;
61397;SDS011;47267;48.130;-2.040;2022-08-16T09:04:58;2.90;;;1.63;;
61397;SDS011;47267;48.130;-2.040;2022-08-16T09:07:24;2.45;;;1.70;;
61397;SDS011;47267;48.130;-2.040;2022-08-16T09:09:49;2.85;;;1.50;;
61397;SDS011;47267;48.130;-2.040;2022-08-16T09:12:15;4.15;;;1.58;;
61397;SDS011;47267;48.130;-2.040;2022-08-16T09:14:42;3.85;;;1.80;;
61397;SDS011;47267;48.130;-2.040;2022-08-16T09:17:09;5.50;;;1.50;;
61397;SDS011;47267;48.130;-2.040;2022-08-16T09:19:36;4.18;;;1.70;;
61397;SDS011;47267;48.130;-2.040;2022-08-16T09:22:03;2.78;;;1.58;;
61397;SDS011;47267;48.130;-2.040;2022-08-16T09:24:30;3.10;;;1.63;;
61397;SDS011;47267;48.130;-2.040;2022-08-16T09:26:57;3.58;;;1.63;;
61397;SDS011;47267;48.130;-2.040;2022-08-16T09:29:23;2.63;;;1.42;;
61397;SDS011;47267;48.130;-2.040;2022-08-16T09:31:49;2.08;;;1.52;;
61397;SDS011;47267;48.130;-2.040;2022-08-16T09:34:15;2.45;;;1.83;;
61397;SDS011;47267;48.130;-2.040;2022-08-16T09:36:41;2.17;;;1.45;;
61397;SDS011;47267;48.130;-2.040;2022-08-16T09:39:07;2.17;;;1.23;;
61397;SDS011;47267;48.130;-2.040;2022-08-16T09:41:34;3.40;;;1.42;;
61397;SDS011;47267;48.130;-2.040;2022-08-16T09:44:00;2.90;;;1.40;;
61397;SDS011;47267;48.130;-2.040;2022-08-16T09:46:28;3.05;;;1.48;;
61397;SDS011;47267;48.130;-2.040;2022-08-16T09:48:55;2.40;;;1.30;;
61397;SDS011;47267;48.130;-2.040;2022-08-16T09:51:22;1.95;;;1.20;;
61397;SDS011;47267;48.130;-2.040;2022-08-16T09:53:50;3.13;;;1.55;;
61397;SDS011;47267;48.130;-2.040;2022-08-16T09:56:24;2.55;;;1.67;;
61397;SDS011;47267;48.130;-2.040;2022-08-16T09:58:52;1.98;;;1.35;;
61397;SDS011;47267;48.130;-2.040;2022-08-16T10:01:18;5.18;;;1.65;;
61397;SDS011;47267;48.130;-2.040;2022-08-16T10:03:44;2.90;;;1.55;;
61397;SDS011;47267;48.130;-2.040;2022-08-16T10:06:10;2.65;;;1.58;;
61397;SDS011;47267;48.130;-2.040;2022-08-16T10:08:35;4.45;;;1.83;;
61397;SDS011;47267;48.130;-2.040;2022-08-16T10:11:01;1.70;;;1.23;;
61397;SDS011;47267;48.130;-2.040;2022-08-16T10:13:45;2.00;;;1.40;;
61397;SDS011;47267;48.130;-2.040;2022-08-16T10:16:11;4.10;;;1.70;;
61397;SDS011;47267;48.130;-2.040;2022-08-16T10:18:38;3.22;;;1.50;;
61397;SDS011;47267;48.130;-2.040;2022-08-16T10:21:06;2.50;;;1.48;;
61397;SDS011;47267;48.130;-2.040;2022-08-16T10:23:33;2.88;;;1.50;;
61397;SDS011;47267;48.130;-2.040;2022-08-16T10:26:00;4.70;;;1.30;;
61397;SDS011;47267;48.130;-2.040;2022-08-16T10:28:26;4.75;;;1.60;;
61397;SDS011;47267;48.130;-2.040;2022-08-16T10:30:53;4.28;;;1.48;;
61397;SDS011;47267;48.130;-2.040;2022-08-16T10:33:19;5.13;;;1.83;;
61397;SDS011;47267;48.130;-2.040;2022-08-16T10:35:45;3.47;;;1.50;;
61397;SDS011;47267;48.130;-2.040;2022-08-16T10:38:11;4.50;;;1.30;;
61397;SDS011;47267;48.130;-2.040;2022-08-16T10:40:41;3.10;;;1.30;;
61397;SDS011;47267;48.130;-2.040;2022-08-16T10:43:07;2.28;;;1.33;;
61397;SDS011;47267;48.130;-2.040;2022-08-16T10:45:33;3.47;;;1.50;;
61397;SDS011;47267;48.130;-2.040;2022-08-16T10:47:59;3.97;;;1.50;;
61397;SDS011;47267;48.130;-2.040;2022-08-16T10:50:25;2.40;;;1.17;;
61397;SDS011;47267;48.130;-2.040;2022-08-16T10:52:52;2.47;;;1.40;;
61397;SDS011;47267;48.130;-2.040;2022-08-16T10:55:19;3.10;;;1.20;;
61397;SDS011;47267;48.130;-2.040;2022-08-16T10:57:45;2.03;;;1.25;;
61397;SDS011;47267;48.130;-2.040;2022-08-16T11:00:14;2.10;;;1.45;;
61397;SDS011;47267;48.130;-2.040;2022-08-16T11:02:41;2.78;;;1.60;;
61397;SDS011;47267;48.130;-2.040;2022-08-16T11:05:08;2.60;;;1.40;;
61397;SDS011;47267;48.130;-2.040;2022-08-16T11:07:40;2.88;;;1.25;;
61397;SDS011;47267;48.130;-2.040;2022-08-16T11:10:08;2.13;;;1.20;;
61397;SDS011;47267;48.130;-2.040;2022-08-16T11:12:35;1.98;;;1.10;;
61397;SDS011;47267;48.130;-2.040;2022-08-16T11:15:01;2.45;;;1.27;;
61397;SDS011;47267;48.130;-2.040;2022-08-16T11:17:27;3.15;;;1.58;;
61397;SDS011;47267;48.130;-2.040;2022-08-16T11:19:53;2.90;;;1.30;;
61397;SDS011;47267;48.130;-2.040;2022-08-16T11:22:19;2.38;;;1.00;;
61397;SDS011;47267;48.130;-2.040;2022-08-16T11:24:45;4.43;;;1.45;;
61397;SDS011;47267;48.130;-2.040;2022-08-16T11:27:15;3.70;;;1.20;;
61397;SDS011;47267;48.130;-2.040;2022-08-16T11:29:44;2.53;;;1.20;;
61397;SDS011;47267;48.130;-2.040;2022-08-16T11:32:10;2.20;;;1.15;;
61397;SDS011;47267;48.130;-2.040;2022-08-16T11:34:35;1.55;;;1.13;;
61397;SDS011;47267;48.130;-2.040;2022-08-16T11:37:01;3.08;;;1.17;;
61397;SDS011;47267;48.130;-2.040;2022-08-16T11:39:28;2.15;;;1.00;;
61397;SDS011;47267;48.130;-2.040;2022-08-16T11:41:55;3.08;;;1.30;;
61397;SDS011;47267;48.130;-2.040;2022-08-16T11:44:22;2.17;;;1.35;;
61397;SDS011;47267;48.130;-2.040;2022-08-16T11:46:48;2.88;;;0.90;;
61397;SDS011;47267;48.130;-2.040;2022-08-16T11:49:14;1.33;;;1.00;;
61397;SDS011;47267;48.130;-2.040;2022-08-16T11:51:42;1.52;;;1.13;;
61397;SDS011;47267;48.130;-2.040;2022-08-16T11:54:10;1.95;;;1.13;;
61397;SDS011;47267;48.130;-2.040;2022-08-16T11:56:37;2.55;;;1.15;;
61397;SDS011;47267;48.130;-2.040;2022-08-16T11:59:03;2.28;;;1.45;;
61397;SDS011;47267;48.130;-2.040;2022-08-16T12:01:29;2.03;;;1.20;;
61397;SDS011;47267;48.130;-2.040;2022-08-16T12:03:55;1.80;;;1.10;;
61397;SDS011;47267;48.130;-2.040;2022-08-16T12:06:21;2.15;;;0.98;;
61397;SDS011;47267;48.130;-2.040;2022-08-16T12:08:50;1.88;;;1.10;;
61397;SDS011;47267;48.130;-2.040;2022-08-16T12:11:19;1.67;;;1.00;;
61397;SDS011;47267;48.130;-2.040;2022-08-16T12:13:45;2.60;;;1.20;;
61397;SDS011;47267;48.130;-2.040;2022-08-16T12:16:11;2.78;;;1.33;;
61397;SDS011;47267;48.130;-2.040;2022-08-16T12:18:38;1.60;;;1.08;;
61397;SDS011;47267;48.130;-2.040;2022-08-16T12:21:04;1.17;;;0.90;;
61397;SDS011;47267;48.130;-2.040;2022-08-16T12:23:30;2.83;;;1.13;;
61397;SDS011;47267;48.130;-2.040;2022-08-16T12:25:56;3.05;;;1.52;;
61397;SDS011;47267;48.130;-2.040;2022-08-16T12:28:22;2.58;;;1.23;;
61397;SDS011;47267;48.130;-2.040;2022-08-16T12:30:48;2.75;;;1.27;;
61397;SDS011;47267;48.130;-2.040;2022-08-16T12:33:15;1.73;;;1.00;;
61397;SDS011;47267;48.130;-2.040;2022-08-16T12:35:41;1.80;;;1.00;;
61397;SDS011;47267;48.130;-2.040;2022-08-16T12:38:11;2.33;;;1.30;;
61397;SDS011;47267;48.130;-2.040;2022-08-16T12:40:39;1.88;;;1.10;;
61397;SDS011;47267;48.130;-2.040;2022-08-16T12:43:08;1.77;;;1.00;;
61397;SDS011;47267;48.130;-2.040;2022-08-16T12:45:36;2.65;;;1.13;;
61397;SDS011;47267;48.130;-2.040;2022-08-16T12:48:05;2.97;;;1.30;;
61397;SDS011;47267;48.130;-2.040;2022-08-16T12:50:51;2.20;;;1.17;;
61397;SDS011;47267;48.130;-2.040;2022-08-16T12:53:18;1.67;;;1.17;;
61397;SDS011;47267;48.130;-2.040;2022-08-16T12:55:44;1.65;;;1.15;;
61397;SDS011;47267;48.130;-2.040;2022-08-16T12:58:11;1.50;;;1.02;;
61397;SDS011;47267;48.130;-2.040;2022-08-16T13:00:38;1.83;;;1.00;;
61397;SDS011;47267;48.130;-2.040;2022-08-16T13:03:04;1.27;;;0.82;;
61397;SDS011;47267;48.130;-2.040;2022-08-16T13:05:31;2.38;;;1.00;;
61397;SDS011;47267;48.130;-2.040;2022-08-16T13:08:00;1.85;;;1.20;;
61397;SDS011;47267;48.130;-2.040;2022-08-16T13:10:29;1.92;;;1.30;;
61397;SDS011;47267;48.130;-2.040;2022-08-16T13:12:55;1.50;;;1.00;;
61397;SDS011;47267;48.130;-2.040;2022-08-16T13:15:22;1.35;;;0.93;;
61397;SDS011;47267;48.130;-2.040;2022-08-16T13:17:50;1.83;;;1.10;;
61397;SDS011;47267;48.130;-2.040;2022-08-16T13:20:18;1.73;;;0.98;;
61397;SDS011;47267;48.130;-2.040;2022-08-16T13:22:48;1.70;;;1.10;;
61397;SDS011;47267;48.130;-2.040;2022-08-16T13:27:45;1.42;;;1.10;;
61397;SDS011;47267;48.130;-2.040;2022-08-16T13:30:11;1.85;;;1.10;;
61397;SDS011;47267;48.130;-2.040;2022-08-16T13:32:37;0.82;;;0.80;;
61397;SDS011;47267;48.130;-2.040;2022-08-16T13:35:03;1.83;;;1.08;;
61397;SDS011;47267;48.130;-2.040;2022-08-16T13:37:30;2.38;;;1.33;;
61397;SDS011;47267;48.130;-2.040;2022-08-16T13:39:56;1.63;;;0.95;;
61397;SDS011;47267;48.130;-2.040;2022-08-16T13:42:22;1.77;;;0.90;;
61397;SDS011;47267;48.130;-2.040;2022-08-16T13:44:49;1.73;;;0.93;;
61397;SDS011;47267;48.130;-2.040;2022-08-16T13:47:15;1.58;;;1.10;;
61397;SDS011;47267;48.130;-2.040;2022-08-16T13:49:42;1.40;;;1.00;;
61397;SDS011;47267;48.130;-2.040;2022-08-16T13:52:10;2.45;;;1.05;;
61397;SDS011;47267;48.130;-2.040;2022-08-16T13:54:37;1.38;;;1.08;;
61397;SDS011;47267;48.130;-2.040;2022-08-16T13:57:03;1.60;;;1.00;;
61397;SDS011;47267;48.130;-2.040;2022-08-16T13:59:29;1.02;;;0.93;;
61397;SDS011;47267;48.130;-2.040;2022-08-16T14:01:55;1.75;;;1.13;;
61397;SDS011;47267;48.130;-2.040;2022-08-16T14:04:28;1.40;;;1.00;;
61397;SDS011;47267;48.130;-2.040;2022-08-16T14:06:59;1.85;;;1.08;;
61397;SDS011;47267;48.130;-2.040;2022-08-16T14:09:27;2.22;;;1.10;;
61397;SDS011;47267;48.130;-2.040;2022-08-16T14:11:55;1.52;;;1.00;;
61397;SDS011;47267;48.130;-2.040;2022-08-16T14:14:24;2.00;;;1.33;;
61397;SDS011;47267;48.130;-2.040;2022-08-16T14:16:51;1.77;;;1.05;;
61397;SDS011;47267;48.130;-2.040;2022-08-16T14:19:16;1.48;;;0.98;;
61397;SDS011;47267;48.130;-2.040;2022-08-16T14:21:44;1.30;;;1.02;;
61397;SDS011;47267;48.130;-2.040;2022-08-16T14:24:10;2.00;;;1.10;;
61397;SDS011;47267;48.130;-2.040;2022-08-16T14:26:40;1.70;;;1.00;;
61397;SDS011;47267;48.130;-2.040;2022-08-16T14:29:07;2.97;;;1.10;;
61397;SDS011;47267;48.130;-2.040;2022-08-16T14:31:33;1.52;;;1.00;;
61397;SDS011;47267;48.130;-2.040;2022-08-16T14:33:59;1.65;;;0.98;;
61397;SDS011;47267;48.130;-2.040;2022-08-16T14:36:25;1.33;;;1.00;;
61397;SDS011;47267;48.130;-2.040;2022-08-16T14:38:51;1.20;;;1.10;;
61397;SDS011;47267;48.130;-2.040;2022-08-16T14:41:17;1.20;;;0.90;;
61397;SDS011;47267;48.130;-2.040;2022-08-16T14:43:43;2.05;;;0.95;;